Time;durP1;ratioP1;P1;durP2;ratioP2;P2;SDS_P1;SDS_P2;PMS_P1;PMS_P2;Temp;Humidity;BMP_temperature;BMP_pressure;BME280_temperature;BME280_humidity;BME280_pressure;Samples;Min_cycle;Max_cycle;Signal;HPM_P1;HPM_P2
2020/12/08 00:01:27;;;;;;;18.50;12.50;;;3.90;99.90;;;;;;5010564;28;20207;-65
2020/12/08 00:03:52;;;;;;;18.80;13.47;;;3.80;99.90;;;;;;5010284;28;20176;-63
2020/12/08 00:06:18;;;;;;;19.03;12.97;;;3.80;99.90;;;;;;5011442;28;20218;-66
2020/12/08 00:08:43;;;;;;;20.23;12.57;;;3.70;99.90;;;;;;5010264;28;20578;-65
2020/12/08 00:11:16;;;;;;;19.83;13.37;;;3.70;99.90;;;;;;5010373;28;20208;-65
2020/12/08 00:13:44;;;;;;;19.27;13.53;;;3.80;99.90;;;;;;5010344;28;20266;-65
2020/12/08 00:16:11;;;;;;;19.67;12.97;;;3.70;99.90;;;;;;5010320;28;20422;-63
2020/12/08 00:18:37;;;;;;;17.93;13.93;;;3.60;99.90;;;;;;5013274;28;20462;-63
2020/12/08 00:21:02;;;;;;;22.10;14.17;;;3.60;99.90;;;;;;5013780;28;20949;-63
2020/12/08 00:23:28;;;;;;;20.33;13.30;;;3.50;99.90;;;;;;5013832;28;20183;-66
2020/12/08 00:25:53;;;;;;;19.73;12.97;;;3.50;99.90;;;;;;5013459;28;20180;-64
2020/12/08 00:28:19;;;;;;;21.03;13.87;;;3.50;99.90;;;;;;5013723;28;20192;-64
2020/12/08 00:30:45;;;;;;;20.57;13.53;;;3.40;99.90;;;;;;5013523;28;20585;-65
2020/12/08 00:33:10;;;;;;;19.50;13.77;;;3.40;99.90;;;;;;4995609;28;20318;-64
2020/12/08 00:35:36;;;;;;;19.90;13.10;;;3.40;99.90;;;;;;5013634;28;20531;-63
2020/12/08 00:38:02;;;;;;;19.83;14.10;;;3.30;99.90;;;;;;5013359;28;20187;-65
2020/12/08 00:40:27;;;;;;;21.63;14.90;;;3.20;99.90;;;;;;5013490;28;20185;-64
2020/12/08 00:42:53;;;;;;;19.80;13.97;;;3.20;99.90;;;;;;5013653;28;20571;-64
2020/12/08 00:45:18;;;;;;;21.27;13.30;;;3.20;99.90;;;;;;4995408;28;20195;-65
2020/12/08 00:47:47;;;;;;;20.23;14.13;;;3.10;99.90;;;;;;5013024;28;20188;-65
2020/12/08 00:50:13;;;;;;;20.20;13.93;;;3.10;99.90;;;;;;4995371;28;20288;-66
2020/12/08 00:52:38;;;;;;;20.60;14.07;;;3.00;99.90;;;;;;5013445;28;20490;-64
2020/12/08 00:55:04;;;;;;;17.77;12.97;;;3.00;99.90;;;;;;5013230;28;20204;-66
2020/12/08 00:57:30;;;;;;;20.97;14.33;;;2.90;99.90;;;;;;5013144;28;20185;-66
2020/12/08 00:59:55;;;;;;;20.53;13.87;;;2.90;99.90;;;;;;5013127;28;20231;-65
2020/12/08 01:02:21;;;;;;;21.10;14.67;;;2.90;99.90;;;;;;5012673;28;20230;-66
2020/12/08 01:04:53;;;;;;;19.53;14.13;;;2.90;99.90;;;;;;5013080;28;20177;-66
2020/12/08 01:07:19;;;;;;;20.37;13.67;;;2.90;99.90;;;;;;5014545;28;20216;-64
2020/12/08 01:09:44;;;;;;;20.53;14.30;;;2.80;99.90;;;;;;5012563;28;20423;-64
2020/12/08 01:12:10;;;;;;;22.83;15.53;;;2.80;99.90;;;;;;5012605;28;20208;-63
2020/12/08 01:14:36;;;;;;;20.13;13.53;;;2.80;99.90;;;;;;5013239;28;20230;-63
2020/12/08 01:17:02;;;;;;;19.03;13.47;;;2.80;99.90;;;;;;5012746;28;20181;-66
2020/12/08 01:19:28;;;;;;;20.87;14.33;;;2.80;99.90;;;;;;5012767;28;20529;-64
2020/12/08 01:21:54;;;;;;;22.00;14.47;;;2.80;99.90;;;;;;5012709;28;20569;-66
2020/12/08 01:24:20;;;;;;;18.83;13.40;;;2.70;99.90;;;;;;5012691;28;20530;-65
2020/12/08 01:26:46;;;;;;;22.33;15.00;;;2.70;99.90;;;;;;5012740;28;20431;-65
2020/12/08 01:29:12;;;;;;;20.77;14.13;;;2.70;99.90;;;;;;5011756;28;20172;-64
2020/12/08 01:31:37;;;;;;;21.47;15.57;;;2.70;99.90;;;;;;5012505;28;20658;-66
2020/12/08 01:34:03;;;;;;;20.30;14.53;;;2.70;99.90;;;;;;4994698;28;20423;-67
2020/12/08 01:36:29;;;;;;;21.57;15.07;;;2.80;99.90;;;;;;5012327;28;20607;-63
2020/12/08 01:38:54;;;;;;;23.07;15.13;;;2.70;99.90;;;;;;5012520;28;20183;-63
2020/12/08 01:41:20;;;;;;;21.47;15.17;;;2.70;99.90;;;;;;5012123;28;20651;-64
2020/12/08 01:43:50;;;;;;;21.03;14.77;;;2.70;99.90;;;;;;5012340;28;20194;-64
2020/12/08 01:46:24;;;;;;;22.00;14.10;;;2.80;99.90;;;;;;5012025;28;20537;-66
2020/12/08 01:48:52;;;;;;;24.87;15.90;;;2.70;99.90;;;;;;5012224;28;20902;-64
2020/12/08 01:51:21;;;;;;;22.90;15.10;;;2.70;99.90;;;;;;5011829;28;20451;-65
2020/12/08 01:53:49;;;;;;;20.33;14.60;;;2.70;99.90;;;;;;5012209;28;20920;-64
2020/12/08 01:56:15;;;;;;;20.63;14.87;;;2.70;99.90;;;;;;5012064;28;20833;-67
2020/12/08 01:58:41;;;;;;;18.73;13.67;;;2.70;99.90;;;;;;5011920;28;20418;-66
2020/12/08 02:01:10;;;;;;;19.67;13.90;;;2.70;99.90;;;;;;5012411;28;20411;-65
2020/12/08 02:03:35;;;;;;;23.20;15.27;;;2.50;99.90;;;;;;5011911;28;20188;-64
2020/12/08 02:06:01;;;;;;;22.27;14.63;;;2.50;99.90;;;;;;5013420;28;20976;-65
2020/12/08 02:08:31;;;;;;;21.10;14.90;;;2.50;99.90;;;;;;5011884;28;20183;-65
2020/12/08 02:10:57;;;;;;;23.93;15.93;;;2.50;99.90;;;;;;5011564;28;20184;-66
2020/12/08 02:13:23;;;;;;;21.23;15.40;;;2.60;99.90;;;;;;4994115;28;20427;-64
2020/12/08 02:15:49;;;;;;;19.53;14.13;;;2.50;99.90;;;;;;5011833;28;20506;-65
2020/12/08 02:18:15;;;;;;;22.17;14.93;;;2.60;99.90;;;;;;5011807;28;20415;-65
2020/12/08 02:20:41;;;;;;;22.67;15.13;;;2.60;99.90;;;;;;5011407;28;20415;-64
2020/12/08 02:23:07;;;;;;;20.40;15.10;;;2.70;99.90;;;;;;5011674;28;20304;-65
2020/12/08 02:25:33;;;;;;;20.50;15.07;;;2.70;99.90;;;;;;5011787;28;20502;-64
2020/12/08 02:27:58;;;;;;;23.10;15.67;;;2.70;99.90;;;;;;5011438;28;20180;-66
2020/12/08 02:30:24;;;;;;;23.20;15.80;;;2.70;99.90;;;;;;5011552;28;20176;-65
2020/12/08 02:32:49;;;;;;;22.77;15.47;;;2.70;99.90;;;;;;5011236;28;20200;-63
2020/12/08 02:35:15;;;;;;;23.77;16.13;;;2.70;99.90;;;;;;5011374;28;20650;-65
2020/12/08 02:37:41;;;;;;;22.97;14.60;;;2.70;99.90;;;;;;5011324;28;20187;-64
2020/12/08 02:40:07;;;;;;;23.73;15.50;;;2.60;99.90;;;;;;5010700;28;20172;-66
2020/12/08 02:42:33;;;;;;;21.77;14.63;;;2.60;99.90;;;;;;5006110;28;20555;-64
2020/12/08 02:44:58;;;;;;;22.23;15.50;;;2.60;99.90;;;;;;5011035;28;20504;-65
2020/12/08 02:47:24;;;;;;;23.03;16.10;;;2.60;99.90;;;;;;5011256;28;20511;-67
2020/12/08 02:49:50;;;;;;;22.57;15.53;;;2.60;99.90;;;;;;5011169;28;20184;-65
2020/12/08 02:52:15;;;;;;;23.40;17.03;;;2.70;99.90;;;;;;5010980;28;20203;-64
2020/12/08 02:54:41;;;;;;;22.90;16.53;;;2.70;99.90;;;;;;5011292;28;20260;-66
2020/12/08 02:57:07;;;;;;;21.60;15.83;;;2.80;99.90;;;;;;5011055;28;20180;-64
2020/12/08 02:59:34;;;;;;;24.83;16.90;;;2.80;99.90;;;;;;5011023;28;20223;-63
2020/12/08 03:02:00;;;;;;;22.47;16.20;;;2.80;99.90;;;;;;5010876;28;20226;-63
2020/12/08 03:04:25;;;;;;;23.83;16.23;;;2.90;99.90;;;;;;5010850;28;20423;-64
2020/12/08 03:06:51;;;;;;;24.20;16.83;;;2.90;99.90;;;;;;5013169;28;20215;-65
2020/12/08 03:09:17;;;;;;;22.03;15.73;;;2.90;99.90;;;;;;5010874;28;20514;-65
2020/12/08 03:11:42;;;;;;;23.90;17.00;;;2.90;99.90;;;;;;5010997;28;20223;-66
2020/12/08 03:14:08;;;;;;;23.40;17.37;;;2.90;99.90;;;;;;5010973;28;20211;-65
2020/12/08 03:16:34;;;;;;;24.27;16.57;;;2.90;99.90;;;;;;5010898;28;20187;-64
2020/12/08 03:19:00;;;;;;;22.57;16.27;;;2.90;99.90;;;;;;5011066;28;20173;-63
2020/12/08 03:21:26;;;;;;;22.83;15.93;;;2.90;99.90;;;;;;5010792;28;20465;-66
2020/12/08 03:23:52;;;;;;;21.53;16.07;;;2.90;99.90;;;;;;5010847;28;20165;-65
2020/12/08 03:26:21;;;;;;;24.93;17.00;;;2.90;99.90;;;;;;5010804;28;20183;-64
2020/12/08 03:28:47;;;;;;;23.27;16.73;;;2.90;99.90;;;;;;5010623;28;20192;-63
2020/12/08 03:31:13;;;;;;;28.40;17.67;;;2.90;99.90;;;;;;5010853;28;20482;-66
2020/12/08 03:33:38;;;;;;;22.77;16.53;;;2.90;99.90;;;;;;5024006;28;20176;-64
2020/12/08 03:36:04;;;;;;;22.97;16.30;;;2.90;99.90;;;;;;5030214;28;20219;-63
2020/12/08 03:38:29;;;;;;;25.43;16.67;;;2.90;99.90;;;;;;5009244;28;20235;-65
2020/12/08 03:40:55;;;;;;;23.97;16.63;;;3.00;99.90;;;;;;5010495;28;20255;-66
2020/12/08 03:43:20;;;;;;;23.87;17.40;;;3.00;99.90;;;;;;5010812;28;20177;-64
2020/12/08 03:45:46;;;;;;;26.23;17.57;;;3.00;99.90;;;;;;5010549;28;20299;-63
2020/12/08 03:48:12;;;;;;;22.03;16.50;;;3.00;99.90;;;;;;5010822;28;20243;-65
2020/12/08 03:50:37;;;;;;;25.97;17.67;;;3.00;99.90;;;;;;5010993;28;20533;-66
2020/12/08 03:53:03;;;;;;;25.70;17.23;;;3.00;99.90;;;;;;5014177;28;20207;-64
2020/12/08 03:55:28;;;;;;;26.13;17.40;;;3.00;99.90;;;;;;5014350;28;20263;-65
2020/12/08 03:57:54;;;;;;;28.33;18.50;;;3.10;99.90;;;;;;5030979;28;20179;-64
2020/12/08 04:00:19;;;;;;;28.37;18.17;;;3.10;99.90;;;;;;5034056;28;20179;-64
2020/12/08 04:02:45;;;;;;;27.27;18.80;;;3.20;99.90;;;;;;5033736;28;20190;-63
2020/12/08 04:05:10;;;;;;;28.63;18.57;;;3.20;99.90;;;;;;5033780;28;20692;-66
2020/12/08 04:07:36;;;;;;;27.17;18.17;;;3.20;99.90;;;;;;5022269;28;20242;-67
2020/12/08 04:10:02;;;;;;;27.37;18.60;;;3.20;99.90;;;;;;5013683;28;20176;-66
2020/12/08 04:12:28;;;;;;;27.17;19.20;;;3.20;99.90;;;;;;5014073;28;20251;-64
2020/12/08 04:15:00;;;;;;;26.63;18.00;;;3.20;99.90;;;;;;5013809;28;20808;-64
2020/12/08 04:17:25;;;;;;;28.30;18.57;;;3.10;99.90;;;;;;5013807;28;20180;-64
2020/12/08 04:19:51;;;;;;;26.97;19.33;;;3.10;99.90;;;;;;5014060;28;20885;-66
2020/12/08 04:22:16;;;;;;;29.53;19.63;;;3.00;99.90;;;;;;5013570;28;20180;-64
2020/12/08 04:24:42;;;;;;;28.47;19.00;;;3.00;99.90;;;;;;5013806;28;20188;-66
2020/12/08 04:27:07;;;;;;;27.70;19.53;;;3.00;99.90;;;;;;5013721;28;20180;-65
2020/12/08 04:29:33;;;;;;;28.30;20.00;;;3.00;99.90;;;;;;5013696;28;20231;-65
2020/12/08 04:31:59;;;;;;;26.97;18.57;;;3.00;99.90;;;;;;5013335;28;20211;-66
2020/12/08 04:34:24;;;;;;;26.90;17.60;;;3.00;99.90;;;;;;4995962;28;20262;-66
2020/12/08 04:36:50;;;;;;;31.27;18.67;;;3.00;99.90;;;;;;5013277;28;20184;-66
2020/12/08 04:39:16;;;;;;;30.03;19.77;;;3.00;99.90;;;;;;5000720;28;20538;-64
2020/12/08 04:41:41;;;;;;;28.80;19.10;;;3.00;99.90;;;;;;4993772;28;20318;-66
2020/12/08 04:44:08;;;;;;;24.83;17.70;;;3.00;99.90;;;;;;4993698;28;20205;-66
2020/12/08 04:46:34;;;;;;;26.87;18.83;;;3.00;99.90;;;;;;4993713;28;20180;-64
2020/12/08 04:49:00;;;;;;;27.73;19.83;;;3.00;99.90;;;;;;4993638;28;20423;-67
2020/12/08 04:51:26;;;;;;;28.33;19.63;;;3.10;99.90;;;;;;4993604;28;20448;-63
2020/12/08 04:53:53;;;;;;;28.73;19.77;;;3.10;99.90;;;;;;4993604;28;20921;-64
2020/12/08 04:56:18;;;;;;;29.37;18.97;;;3.20;99.90;;;;;;4993705;28;20596;-65
2020/12/08 04:58:44;;;;;;;36.33;20.03;;;3.20;99.90;;;;;;4993640;28;20508;-65
2020/12/08 05:01:23;;;;;;;31.80;19.57;;;3.20;99.90;;;;;;4993402;28;20180;-63
2020/12/08 05:03:56;;;;;;;32.17;20.30;;;3.30;99.90;;;;;;4975212;28;20255;-63
2020/12/08 05:06:28;;;;;;;28.83;18.73;;;3.30;99.90;;;;;;4981485;28;20439;-65
2020/12/08 05:09:08;;;;;;;26.90;18.43;;;3.20;99.90;;;;;;4986385;28;20436;-65
2020/12/08 05:11:34;;;;;;;28.60;19.53;;;3.20;99.90;;;;;;4993323;28;20466;-67
2020/12/08 05:14:05;;;;;;;29.43;20.47;;;3.20;99.90;;;;;;4992979;28;20424;-64
2020/12/08 05:16:32;;;;;;;30.43;19.37;;;3.20;99.90;;;;;;4993151;28;20766;-65
2020/12/08 05:19:09;;;;;;;31.13;21.47;;;3.10;99.90;;;;;;4992970;28;20420;-63
2020/12/08 05:21:49;;;;;;;33.23;20.30;;;3.20;99.90;;;;;;4993092;28;20532;-63
2020/12/08 05:24:24;;;;;;;30.50;19.97;;;3.10;99.90;;;;;;4997369;28;20522;-66
2020/12/08 05:27:02;;;;;;;29.97;19.00;;;3.20;99.90;;;;;;5012261;28;20936;-65
2020/12/08 05:29:34;;;;;;;27.60;18.43;;;3.20;99.90;;;;;;5008725;28;20416;-65
2020/12/08 05:32:34;;;;;;;33.10;20.40;;;3.20;99.90;;;;;;4994609;28;20852;-64
2020/12/08 05:35:03;;;;;;;31.13;21.27;;;3.20;99.90;;;;;;4985640;28;20518;-64
2020/12/08 05:37:34;;;;;;;30.97;20.27;;;3.20;99.90;;;;;;5007983;28;20407;-63
2020/12/08 05:40:04;;;;;;;27.97;19.70;;;3.30;99.90;;;;;;5000039;28;20415;-63
2020/12/08 05:42:33;;;;;;;32.47;20.47;;;3.30;99.90;;;;;;4986456;28;20865;-65
2020/12/08 05:44:59;;;;;;;29.30;20.90;;;3.20;99.90;;;;;;4996003;28;20993;-64
2020/12/08 05:47:24;;;;;;;32.10;21.00;;;3.20;99.90;;;;;;5008034;28;20516;-63
2020/12/08 05:50:02;;;;;;;32.73;21.00;;;3.20;99.90;;;;;;4999359;28;20579;-62
2020/12/08 05:52:32;;;;;;;30.63;20.27;;;3.20;99.90;;;;;;4996919;28;20236;-64
2020/12/08 05:55:07;;;;;;;30.50;20.97;;;3.20;99.90;;;;;;5003862;28;21125;-64
2020/12/08 05:57:33;;;;;;;31.20;21.43;;;3.20;99.90;;;;;;4998068;28;20411;-65
2020/12/08 06:00:00;;;;;;;30.10;20.93;;;3.20;99.90;;;;;;5006069;28;20415;-64
2020/12/08 06:02:30;;;;;;;32.17;21.33;;;3.30;99.90;;;;;;5002057;28;20180;-64
2020/12/08 06:04:57;;;;;;;28.87;19.67;;;3.30;99.90;;;;;;4999110;28;20781;-65
2020/12/08 06:07:27;;;;;;;31.20;20.80;;;3.30;99.90;;;;;;5012036;28;20494;-63
2020/12/08 06:10:10;;;;;;;29.73;20.53;;;3.30;99.90;;;;;;5018811;28;20808;-64
2020/12/08 06:12:39;;;;;;;29.63;20.07;;;3.30;99.90;;;;;;5012409;28;20490;-65
2020/12/08 06:15:25;;;;;;;29.60;20.63;;;3.30;99.90;;;;;;5027363;28;20414;-64
2020/12/08 06:17:51;;;;;;;31.43;20.13;;;3.30;99.90;;;;;;5012577;28;20433;-63
2020/12/08 06:20:18;;;;;;;31.93;20.53;;;3.20;99.90;;;;;;5027155;28;21734;-64
2020/12/08 06:22:56;;;;;;;31.80;20.50;;;3.20;99.90;;;;;;5024381;28;20423;-63
2020/12/08 06:25:23;;;;;;;35.60;21.80;;;3.20;99.90;;;;;;5019827;28;20428;-63
2020/12/08 06:27:48;;;;;;;37.57;21.60;;;3.10;99.90;;;;;;5028995;28;20422;-65
2020/12/08 06:30:19;;;;;;;34.40;21.10;;;3.10;99.90;;;;;;5024236;28;20835;-64
2020/12/08 06:32:46;;;;;;;31.83;21.00;;;3.10;99.90;;;;;;5026794;28;20253;-63
2020/12/08 06:35:13;;;;;;;38.67;22.70;;;3.10;99.90;;;;;;5019817;28;20465;-64
2020/12/08 06:37:53;;;;;;;35.17;22.40;;;3.10;99.90;;;;;;5018216;28;20950;-63
2020/12/08 06:40:23;;;;;;;42.43;24.77;;;3.10;99.90;;;;;;5021577;28;20427;-63
2020/12/08 06:42:49;;;;;;;45.77;26.73;;;3.10;99.90;;;;;;5025681;28;20780;-63
2020/12/08 06:45:22;;;;;;;45.57;27.10;;;3.10;99.90;;;;;;5021699;28;20540;-63
2020/12/08 06:47:49;;;;;;;42.70;25.33;;;3.10;99.90;;;;;;5014794;28;20431;-63
2020/12/08 06:50:22;;;;;;;37.33;24.07;;;3.10;99.90;;;;;;5019139;28;20447;-63
2020/12/08 06:52:56;;;;;;;37.37;23.93;;;3.10;99.90;;;;;;5015109;28;20493;-63
2020/12/08 06:55:23;;;;;;;37.90;23.63;;;3.10;99.90;;;;;;4993292;28;20570;-62
2020/12/08 06:57:49;;;;;;;36.00;22.10;;;3.10;99.90;;;;;;5020180;28;20451;-62
2020/12/08 07:00:14;;;;;;;35.90;22.83;;;3.10;99.90;;;;;;5021642;28;20792;-63
2020/12/08 07:02:51;;;;;;;37.17;23.43;;;3.10;99.90;;;;;;5011296;28;20192;-62
2020/12/08 07:05:29;;;;;;;35.70;21.70;;;3.10;99.90;;;;;;5027451;28;20183;-65
2020/12/08 07:07:58;;;;;;;32.20;20.80;;;3.20;99.90;;;;;;5015041;28;20447;-63
2020/12/08 07:10:24;;;;;;;36.30;23.20;;;3.20;99.90;;;;;;5011624;28;20442;-63
2020/12/08 07:12:54;;;;;;;36.70;21.93;;;3.20;99.90;;;;;;5011269;28;20550;-63
2020/12/08 07:15:25;;;;;;;32.93;21.77;;;3.30;99.90;;;;;;5010473;28;20534;-63
2020/12/08 07:17:53;;;;;;;30.20;20.73;;;3.20;99.90;;;;;;5011458;28;20419;-64
2020/12/08 07:20:19;;;;;;;33.93;21.30;;;3.30;99.90;;;;;;5011008;28;20825;-63
2020/12/08 07:22:45;;;;;;;31.97;20.60;;;3.30;99.90;;;;;;5010909;28;20427;-65
2020/12/08 07:25:13;;;;;;;32.93;21.73;;;3.30;99.90;;;;;;5010923;28;20180;-64
2020/12/08 07:27:51;;;;;;;29.00;20.63;;;3.30;99.90;;;;;;5014969;28;20416;-65
2020/12/08 07:30:18;;;;;;;36.53;20.67;;;3.30;99.90;;;;;;5014709;28;20559;-63
2020/12/08 07:32:44;;;;;;;33.87;21.60;;;3.40;99.90;;;;;;5014852;28;20936;-65
2020/12/08 07:35:25;;;;;;;31.17;21.03;;;3.40;99.90;;;;;;5014678;28;20423;-63
2020/12/08 07:37:58;;;;;;;31.17;20.97;;;3.40;99.90;;;;;;5014266;28;20585;-64
2020/12/08 07:40:35;;;;;;;30.50;20.77;;;3.30;99.90;;;;;;5014538;28;20427;-66
2020/12/08 07:43:02;;;;;;;35.80;21.23;;;3.40;99.90;;;;;;5014517;28;20466;-64
2020/12/08 07:45:29;;;;;;;31.27;20.70;;;3.40;99.90;;;;;;5014451;28;20510;-62
2020/12/08 07:47:58;;;;;;;31.73;20.50;;;3.40;99.90;;;;;;5014700;28;20410;-65
2020/12/08 07:50:27;;;;;;;30.40;20.10;;;3.50;99.90;;;;;;5014198;28;20429;-63
2020/12/08 07:53:07;;;;;;;31.77;21.00;;;3.50;99.90;;;;;;5014545;28;20510;-65
2020/12/08 07:55:46;;;;;;;36.17;20.93;;;3.60;99.90;;;;;;5013556;28;20433;-65
2020/12/08 07:58:12;;;;;;;32.07;19.93;;;3.70;99.90;;;;;;5014456;28;20407;-63
2020/12/08 08:00:38;;;;;;;34.10;20.47;;;3.70;99.90;;;;;;5014058;28;20411;-65
2020/12/08 08:03:04;;;;;;;31.70;20.67;;;3.70;99.90;;;;;;5014555;28;20411;-64
2020/12/08 08:05:31;;;;;;;31.10;20.73;;;3.70;99.90;;;;;;5014418;28;20467;-65
2020/12/08 08:07:57;;;;;;;34.27;21.80;;;3.70;99.90;;;;;;5020345;28;20244;-64
2020/12/08 08:10:22;;;;;;;30.47;20.87;;;3.70;99.90;;;;;;5022821;28;20470;-64
2020/12/08 08:12:48;;;;;;;30.93;21.00;;;3.70;99.90;;;;;;5019660;28;20243;-63
2020/12/08 08:15:13;;;;;;;31.87;21.30;;;3.80;99.90;;;;;;5022311;28;20216;-65
2020/12/08 08:17:39;;;;;;;34.43;21.10;;;3.90;99.90;;;;;;5022100;28;20257;-64
2020/12/08 08:20:06;;;;;;;30.47;20.03;;;3.90;99.90;;;;;;5015167;28;20168;-63
2020/12/08 08:22:32;;;;;;;30.67;21.53;;;3.80;99.90;;;;;;5029459;28;20187;-65
2020/12/08 08:24:57;;;;;;;27.20;19.80;;;3.90;99.90;;;;;;5018515;28;20418;-63
2020/12/08 08:27:23;;;;;;;31.80;21.77;;;3.90;99.90;;;;;;5020582;28;20176;-63
2020/12/08 08:29:49;;;;;;;29.27;20.50;;;4.00;99.90;;;;;;5024361;28;20645;-64
2020/12/08 08:32:15;;;;;;;29.17;20.20;;;4.20;99.90;;;;;;5024397;28;20438;-64
2020/12/08 08:34:40;;;;;;;30.37;20.27;;;4.20;99.90;;;;;;5026819;28;20528;-64
2020/12/08 08:37:06;;;;;;;29.33;20.00;;;4.30;99.90;;;;;;5022666;28;20188;-64
2020/12/08 08:39:32;;;;;;;38.20;20.23;;;4.40;99.90;;;;;;5021602;28;20169;-63
2020/12/08 08:41:57;;;;;;;32.77;20.43;;;4.40;99.90;;;;;;5017581;28;20314;-65
2020/12/08 08:44:23;;;;;;;30.43;20.70;;;4.50;99.90;;;;;;5025899;28;20661;-64
2020/12/08 08:46:49;;;;;;;29.83;20.10;;;4.60;99.90;;;;;;5025379;28;20314;-63
2020/12/08 08:49:15;;;;;;;33.90;21.60;;;4.60;99.90;;;;;;5020054;28;20628;-64
2020/12/08 08:51:46;;;;;;;31.33;21.67;;;4.70;99.90;;;;;;5016118;28;20712;-64
2020/12/08 08:54:14;;;;;;;34.57;20.60;;;4.80;99.90;;;;;;5017519;28;20180;-63
2020/12/08 08:56:40;;;;;;;29.77;20.00;;;4.90;99.90;;;;;;5025680;28;20425;-64
2020/12/08 08:59:06;;;;;;;29.90;19.70;;;4.90;99.90;;;;;;5022407;28;20511;-64
2020/12/08 09:01:35;;;;;;;29.00;19.33;;;4.90;99.90;;;;;;5024983;28;20499;-64
2020/12/08 09:04:02;;;;;;;31.03;20.67;;;5.00;99.90;;;;;;5023861;28;20493;-65
2020/12/08 09:06:28;;;;;;;29.53;20.30;;;5.00;99.90;;;;;;5024132;28;20929;-64
2020/12/08 09:08:53;;;;;;;27.37;20.00;;;5.10;99.90;;;;;;5024778;28;20465;-65
2020/12/08 09:11:19;;;;;;;27.50;19.67;;;5.30;99.90;;;;;;5018441;28;20542;-63
2020/12/08 09:13:45;;;;;;;26.87;19.50;;;5.40;99.90;;;;;;5016978;28;20235;-65
2020/12/08 09:16:12;;;;;;;28.33;20.60;;;5.40;99.90;;;;;;5019183;28;20218;-64
2020/12/08 09:18:37;;;;;;;29.63;21.17;;;5.50;99.90;;;;;;5022643;28;20177;-63
2020/12/08 09:21:03;;;;;;;26.83;19.37;;;5.40;99.90;;;;;;5024128;28;20501;-65
2020/12/08 09:23:29;;;;;;;26.87;19.43;;;5.40;99.90;;;;;;5026944;28;20179;-64
2020/12/08 09:25:57;;;;;;;29.00;19.73;;;5.40;99.90;;;;;;5019513;28;20800;-64
2020/12/08 09:28:24;;;;;;;30.27;18.97;;;5.40;99.90;;;;;;5018034;28;20649;-64
2020/12/08 09:30:49;;;;;;;27.97;20.17;;;5.40;99.90;;;;;;5016683;28;20807;-63
2020/12/08 09:33:15;;;;;;;25.50;19.33;;;5.40;99.90;;;;;;5021439;28;20458;-63
2020/12/08 09:35:41;;;;;;;28.60;20.07;;;5.50;99.90;;;;;;5022797;28;20626;-64
2020/12/08 09:38:07;;;;;;;29.30;20.07;;;5.50;99.90;;;;;;5023857;28;20415;-65
2020/12/08 09:40:36;;;;;;;32.13;20.73;;;5.50;99.90;;;;;;5030274;28;20179;-65
2020/12/08 09:43:03;;;;;;;33.50;20.57;;;5.50;99.90;;;;;;5019508;28;20226;-65
2020/12/08 09:45:29;;;;;;;29.90;20.07;;;5.50;99.90;;;;;;5022498;28;20788;-65
2020/12/08 09:47:54;;;;;;;30.70;19.83;;;5.50;99.90;;;;;;5019405;28;20419;-64
2020/12/08 09:50:20;;;;;;;27.50;19.53;;;5.40;99.90;;;;;;5020229;28;20186;-63
2020/12/08 09:52:45;;;;;;;30.57;20.23;;;5.40;99.90;;;;;;5027650;28;20657;-63
2020/12/08 09:55:11;;;;;;;30.97;20.83;;;5.40;99.90;;;;;;5025382;28;20239;-63
2020/12/08 09:57:43;;;;;;;31.33;20.97;;;5.30;99.90;;;;;;5014876;28;20215;-64
2020/12/08 10:00:09;;;;;;;28.70;20.80;;;5.10;99.90;;;;;;5016187;28;20478;-62
2020/12/08 10:02:34;;;;;;;32.30;22.07;;;5.00;99.90;;;;;;5017665;28;20234;-65
2020/12/08 10:05:00;;;;;;;32.30;21.80;;;5.00;99.90;;;;;;5023714;28;20272;-64
2020/12/08 10:07:32;;;;;;;29.23;20.57;;;5.00;99.90;;;;;;5019426;28;20741;-64
2020/12/08 10:09:58;;;;;;;30.90;21.40;;;4.90;99.90;;;;;;5011347;28;20188;-64
2020/12/08 10:12:23;;;;;;;31.00;20.57;;;5.00;99.90;;;;;;5011680;28;20455;-63
2020/12/08 10:14:49;;;;;;;28.70;20.30;;;5.10;99.90;;;;;;5011806;28;20191;-64
2020/12/08 10:17:15;;;;;;;30.40;20.50;;;5.30;99.90;;;;;;5011885;28;20227;-64
2020/12/08 10:19:42;;;;;;;30.23;20.77;;;5.40;99.90;;;;;;5011795;28;20183;-64
2020/12/08 10:22:08;;;;;;;28.57;20.80;;;5.50;99.90;;;;;;5011620;28;20514;-64
2020/12/08 10:24:33;;;;;;;30.30;21.53;;;5.60;99.90;;;;;;5011680;28;20989;-65
2020/12/08 10:26:59;;;;;;;28.57;21.37;;;5.70;99.90;;;;;;5011476;28;20267;-65
2020/12/08 10:29:25;;;;;;;33.47;21.90;;;5.70;99.90;;;;;;5011652;28;20175;-65
2020/12/08 10:31:51;;;;;;;32.63;20.87;;;5.80;99.90;;;;;;4993469;28;20662;-63
2020/12/08 10:34:17;;;;;;;31.77;21.73;;;6.00;99.90;;;;;;5011381;28;20252;-63
2020/12/08 10:36:45;;;;;;;29.33;21.43;;;6.20;99.90;;;;;;5011293;28;20423;-64
2020/12/08 10:39:11;;;;;;;31.17;21.77;;;6.40;99.90;;;;;;5011164;28;20408;-65
2020/12/08 10:41:36;;;;;;;29.50;22.10;;;6.40;99.40;;;;;;5011383;28;20897;-65
2020/12/08 10:44:02;;;;;;;26.07;19.43;;;6.30;99.10;;;;;;5011193;28;20208;-64
2020/12/08 10:46:28;;;;;;;30.53;20.53;;;6.30;99.40;;;;;;5011449;28;20228;-64
2020/12/08 10:48:53;;;;;;;29.87;20.63;;;6.20;99.20;;;;;;5011172;28;20219;-65
2020/12/08 10:51:23;;;;;;;30.63;21.30;;;6.20;99.50;;;;;;5010845;28;20247;-64
2020/12/08 10:53:50;;;;;;;29.40;20.47;;;6.10;99.60;;;;;;5011154;28;20506;-63
2020/12/08 10:56:21;;;;;;;26.53;19.47;;;5.90;99.50;;;;;;5010771;28;20535;-64
2020/12/08 10:58:47;;;;;;;31.63;20.53;;;6.00;99.90;;;;;;5010066;28;20411;-65
2020/12/08 11:01:20;;;;;;;28.77;21.27;;;6.00;99.50;;;;;;5010120;28;20408;-63
2020/12/08 11:03:46;;;;;;;28.77;20.90;;;6.00;99.90;;;;;;5010989;28;20497;-64
2020/12/08 11:06:22;;;;;;;30.63;20.67;;;6.10;99.90;;;;;;5011053;28;20411;-65
2020/12/08 11:08:55;;;;;;;30.30;20.53;;;6.20;99.90;;;;;;5012741;28;20461;-63
2020/12/08 11:11:21;;;;;;;26.87;19.67;;;6.40;99.30;;;;;;5010674;28;20415;-64
2020/12/08 11:13:47;;;;;;;25.70;19.30;;;6.50;99.50;;;;;;5011214;28;20417;-62
2020/12/08 11:16:13;;;;;;;30.83;20.07;;;6.70;99.70;;;;;;5010981;28;20878;-64
2020/12/08 11:18:39;;;;;;;25.13;19.13;;;7.10;99.80;;;;;;5011000;28;20423;-63
2020/12/08 11:21:05;;;;;;;27.77;19.57;;;7.40;98.50;;;;;;5011062;28;20455;-64
2020/12/08 11:23:30;;;;;;;27.50;19.80;;;7.80;98.40;;;;;;5010725;28;20182;-66
2020/12/08 11:25:56;;;;;;;27.10;18.60;;;8.20;97.30;;;;;;5010778;28;20239;-64
2020/12/08 11:28:22;;;;;;;29.57;22.67;;;8.70;97.30;;;;;;5010785;28;20180;-64
2020/12/08 11:30:47;;;;;;;29.73;19.57;;;8.90;95.90;;;;;;5010622;28;20248;-65
2020/12/08 11:33:13;;;;;;;24.33;18.63;;;9.00;95.20;;;;;;5010855;28;20529;-64
2020/12/08 11:35:39;;;;;;;27.20;20.07;;;9.30;96.00;;;;;;5010848;28;20263;-64
2020/12/08 11:38:05;;;;;;;24.67;20.17;;;9.60;94.30;;;;;;5010433;28;20176;-63
2020/12/08 11:40:30;;;;;;;25.43;19.30;;;10.00;93.70;;;;;;5010785;28;20549;-65
2020/12/08 11:43:02;;;;;;;24.47;19.07;;;10.50;93.50;;;;;;5010675;28;20638;-65
2020/12/08 11:45:28;;;;;;;25.70;20.20;;;10.90;93.30;;;;;;5010656;28;20180;-65
2020/12/08 11:47:53;;;;;;;24.47;19.07;;;11.30;92.00;;;;;;4992568;28;20423;-64
2020/12/08 11:50:19;;;;;;;23.97;19.40;;;11.20;92.20;;;;;;5010562;28;20184;-65
2020/12/08 11:52:45;;;;;;;22.07;18.40;;;11.40;90.30;;;;;;5010469;28;20196;-64
2020/12/08 11:55:10;;;;;;;26.63;18.97;;;11.60;89.70;;;;;;5010639;28;20172;-63
2020/12/08 11:57:36;;;;;;;23.27;19.03;;;11.50;87.60;;;;;;5010402;28;20172;-65
2020/12/08 12:00:11;;;;;;;26.30;19.43;;;11.70;90.10;;;;;;5010247;28;20532;-65
2020/12/08 12:02:36;;;;;;;23.33;19.70;;;11.90;90.10;;;;;;5010512;28;20226;-65
2020/12/08 12:05:03;;;;;;;24.20;18.60;;;12.10;87.10;;;;;;5010378;28;20635;-64
2020/12/08 12:07:29;;;;;;;27.20;19.37;;;12.30;85.70;;;;;;5011613;28;20228;-66
2020/12/08 12:09:54;;;;;;;29.23;19.20;;;12.60;83.20;;;;;;5010468;28;20185;-63
2020/12/08 12:12:20;;;;;;;23.40;17.63;;;12.60;80.30;;;;;;5011539;28;20613;-64
2020/12/08 12:14:45;;;;;;;22.37;18.90;;;12.80;82.00;;;;;;5012647;28;20200;-64
2020/12/08 12:17:11;;;;;;;21.93;17.80;;;13.00;81.90;;;;;;5014080;28;20172;-63
2020/12/08 12:19:36;;;;;;;22.77;19.07;;;13.10;80.90;;;;;;5013332;28;20227;-65
2020/12/08 12:22:02;;;;;;;22.37;19.10;;;12.80;79.00;;;;;;5013827;28;20612;-64
2020/12/08 12:24:28;;;;;;;26.07;18.33;;;12.80;76.40;;;;;;5013670;28;20271;-64
2020/12/08 12:26:54;;;;;;;23.27;18.83;;;12.70;77.30;;;;;;5013878;28;20574;-64
2020/12/08 12:29:19;;;;;;;21.00;17.70;;;12.50;80.00;;;;;;5013803;28;20211;-64
2020/12/08 12:31:46;;;;;;;21.93;18.23;;;12.70;80.40;;;;;;5013794;28;20262;-63
2020/12/08 12:34:12;;;;;;;31.00;18.43;;;12.90;80.00;;;;;;5012584;28;20180;-63
2020/12/08 12:36:39;;;;;;;25.77;19.83;;;13.10;78.10;;;;;;5013545;28;20199;-64